createdAt,value
2018-05-27T00:02:02.346Z,17.50
2018-05-27T00:04:31.177Z,14.97
2018-05-27T00:07:00.009Z,15.47
2018-05-27T00:09:28.579Z,14.93
2018-05-27T00:11:57.929Z,16.77
2018-05-27T00:14:26.567Z,18.10
2018-05-27T00:16:55.337Z,17.70
2018-05-27T00:19:24.174Z,20.07
2018-05-27T00:21:53.715Z,18.40
2018-05-27T00:24:23.182Z,18.40
2018-05-27T00:26:51.999Z,17.10
2018-05-27T00:29:20.731Z,15.13
2018-05-27T00:31:49.508Z,17.30
2018-05-27T00:34:19.133Z,18.60
2018-05-27T00:36:47.959Z,16.00
2018-05-27T00:39:17.486Z,15.73
2018-05-27T00:41:46.218Z,13.57
2018-05-27T00:44:15.997Z,14.03
2018-05-27T00:46:44.861Z,12.90
2018-05-27T00:49:13.692Z,11.73
2018-05-27T00:51:42.529Z,11.90
2018-05-27T00:54:11.868Z,6.97
2018-05-27T00:56:41.333Z,6.50
2018-05-27T00:59:10.002Z,5.43
2018-05-27T01:01:39.031Z,5.73
2018-05-27T01:04:07.987Z,4.60
2018-05-27T01:06:38.054Z,4.23
2018-05-27T01:09:07.254Z,5.90
2018-05-27T01:11:35.763Z,5.77
2018-05-27T01:14:04.529Z,5.40
2018-05-27T01:16:33.265Z,5.73
2018-05-27T01:19:01.944Z,7.00
2018-05-27T01:21:30.506Z,6.00
2018-05-27T01:23:58.997Z,3.87
2018-05-27T01:26:27.743Z,6.37
2018-05-27T01:28:56.442Z,5.77
2018-05-27T01:31:25.072Z,4.17
2018-05-27T01:33:53.655Z,4.67
2018-05-27T01:36:22.213Z,5.90
2018-05-27T01:38:52.160Z,5.87
2018-05-27T01:41:20.847Z,6.60
2018-05-27T01:43:49.569Z,8.60
2018-05-27T01:46:18.598Z,11.40
2018-05-27T01:48:47.428Z,10.37
2018-05-27T01:51:16.238Z,10.47
2018-05-27T01:53:45.061Z,11.37
2018-05-27T01:56:13.782Z,11.00
2018-05-27T01:58:42.558Z,11.23
2018-05-27T02:01:11.387Z,15.73
2018-05-27T02:03:40.027Z,16.57
2018-05-27T02:06:08.770Z,14.30
2018-05-27T02:08:37.494Z,14.47
2018-05-27T02:11:06.330Z,16.60
2018-05-27T02:13:34.906Z,18.57
2018-05-27T02:16:03.664Z,16.60
2018-05-27T02:18:32.307Z,19.30
2018-05-27T02:21:01.026Z,17.70
2018-05-27T02:23:29.897Z,19.10
2018-05-27T02:25:58.707Z,21.10
2018-05-27T02:28:27.562Z,21.77
2018-05-27T02:30:57.037Z,20.23
2018-05-27T02:33:25.475Z,19.07
2018-05-27T02:35:54.252Z,23.27
2018-05-27T02:38:23.872Z,22.23
2018-05-27T02:40:52.611Z,18.40
2018-05-27T02:43:21.342Z,22.87
2018-05-27T02:45:50.760Z,19.60
2018-05-27T02:48:19.264Z,19.67
2018-05-27T02:50:48.031Z,20.60
2018-05-27T02:53:16.864Z,19.90
2018-05-27T02:55:45.694Z,21.17
2018-05-27T02:58:14.528Z,20.80
2018-05-27T03:00:43.350Z,25.30
2018-05-27T03:03:11.856Z,21.67
2018-05-27T03:05:40.535Z,21.93
2018-05-27T03:08:09.232Z,20.87
2018-05-27T03:10:37.901Z,18.20
2018-05-27T03:13:06.733Z,20.90
2018-05-27T03:15:35.565Z,20.30
2018-05-27T03:18:04.373Z,23.00
2018-05-27T03:20:33.190Z,23.00
2018-05-27T03:23:01.865Z,20.07
2018-05-27T03:25:30.709Z,18.70
2018-05-27T03:27:59.528Z,20.03
2018-05-27T03:30:28.755Z,19.07
2018-05-27T03:32:57.486Z,21.57
2018-05-27T03:35:26.195Z,19.73
2018-05-27T03:37:55.054Z,18.77
2018-05-27T03:40:23.885Z,18.83
2018-05-27T03:42:52.651Z,18.03
2018-05-27T03:45:22.139Z,21.43
2018-05-27T03:47:50.971Z,18.73
2018-05-27T03:50:19.799Z,20.97
2018-05-27T03:52:48.523Z,21.63
2018-05-27T03:55:17.233Z,19.57
2018-05-27T03:57:45.976Z,21.70
2018-05-27T04:00:14.519Z,19.20
2018-05-27T04:02:43.372Z,18.30
2018-05-27T04:05:29.566Z,21.40
2018-05-27T04:08:15.840Z,18.10
2018-05-27T04:10:44.335Z,17.50
2018-05-27T04:13:12.910Z,19.63
2018-05-27T04:15:42.246Z,20.30
2018-05-27T04:18:10.941Z,19.17
2018-05-27T04:20:39.799Z,18.77
2018-05-27T04:23:08.635Z,17.87
2018-05-27T04:25:37.367Z,22.97
2018-05-27T04:28:05.812Z,18.03
2018-05-27T04:30:34.501Z,18.03
2018-05-27T04:35:37.905Z,21.00
2018-05-27T04:38:06.735Z,20.53
2018-05-27T04:40:35.455Z,19.40
2018-05-27T04:43:04.159Z,18.47
2018-05-27T04:45:33.035Z,18.27
2018-05-27T04:48:01.868Z,19.57
2018-05-27T04:50:30.566Z,17.90
2018-05-27T04:52:59.198Z,19.17
2018-05-27T04:55:27.898Z,19.80
2018-05-27T04:57:57.316Z,18.33
2018-05-27T05:00:26.793Z,15.23
2018-05-27T05:02:55.645Z,17.50
2018-05-27T05:05:24.143Z,17.13
2018-05-27T05:07:53.234Z,18.53
2018-05-27T05:10:22.703Z,14.77
2018-05-27T05:12:51.418Z,14.97
2018-05-27T05:15:19.989Z,15.93
2018-05-27T05:17:48.753Z,13.17
2018-05-27T05:20:18.230Z,14.60
2018-05-27T05:22:47.090Z,12.13
2018-05-27T05:25:15.920Z,14.47
2018-05-27T05:27:44.613Z,14.80
2018-05-27T05:30:13.395Z,14.13
2018-05-27T05:32:42.085Z,14.77
2018-05-27T05:35:10.775Z,12.37
2018-05-27T05:37:40.244Z,13.37
2018-05-27T05:40:09.309Z,13.27
2018-05-27T05:42:38.924Z,10.80
2018-05-27T05:45:08.495Z,11.53
2018-05-27T05:47:37.488Z,10.93
2018-05-27T05:50:07.197Z,11.40
2018-05-27T05:52:36.469Z,11.20
2018-05-27T05:55:05.500Z,9.80
2018-05-27T05:57:34.274Z,10.60
2018-05-27T06:00:02.976Z,9.30
2018-05-27T06:02:31.669Z,9.60
2018-05-27T06:05:01.022Z,11.20
2018-05-27T06:07:29.800Z,12.10
2018-05-27T06:09:58.636Z,10.10
2018-05-27T06:12:27.336Z,9.83
2018-05-27T06:14:55.959Z,9.70
2018-05-27T06:17:24.645Z,11.43
2018-05-27T06:19:53.288Z,9.83
2018-05-27T06:22:22.007Z,10.37
2018-05-27T06:24:50.646Z,11.23
2018-05-27T06:27:19.338Z,10.83
2018-05-27T06:29:48.034Z,11.57
2018-05-27T06:32:17.500Z,11.23
2018-05-27T06:34:45.970Z,9.93
2018-05-27T06:37:14.802Z,11.60
2018-05-27T06:39:43.634Z,10.43
2018-05-27T06:42:13.247Z,11.60
2018-05-27T06:44:42.091Z,9.60
2018-05-27T06:47:11.704Z,11.07
2018-05-27T06:49:40.497Z,10.43
2018-05-27T06:52:09.089Z,11.97
2018-05-27T06:54:37.783Z,12.47
2018-05-27T06:57:06.646Z,13.67
2018-05-27T06:59:35.077Z,9.93
2018-05-27T07:02:03.719Z,9.83
2018-05-27T07:04:32.473Z,10.43
2018-05-27T07:07:01.190Z,8.47
2018-05-27T07:09:30.014Z,10.50
2018-05-27T07:11:58.843Z,12.80
2018-05-27T07:14:27.677Z,12.23
2018-05-27T07:16:56.488Z,11.37
2018-05-27T07:19:25.082Z,11.87
2018-05-27T07:21:54.522Z,12.27
2018-05-27T07:24:23.201Z,9.30
2018-05-27T07:26:52.807Z,8.73
2018-05-27T07:29:21.377Z,7.73
2018-05-27T07:31:51.589Z,9.70
2018-05-27T07:34:20.213Z,11.77
2018-05-27T07:36:49.376Z,8.33
2018-05-27T07:39:18.019Z,9.03
2018-05-27T07:41:46.804Z,12.73
2018-05-27T07:44:15.675Z,11.47
2018-05-27T07:46:44.382Z,11.20
2018-05-27T07:49:13.790Z,10.10
2018-05-27T07:51:42.374Z,10.43
2018-05-27T07:54:10.956Z,10.93
2018-05-27T07:56:39.691Z,11.93
2018-05-27T07:59:09.335Z,10.47
2018-05-27T08:01:38.800Z,9.77
2018-05-27T08:04:07.530Z,10.70
2018-05-27T08:06:36.491Z,9.70
2018-05-27T08:09:05.183Z,10.53
2018-05-27T08:11:33.871Z,10.20
2018-05-27T08:14:02.455Z,10.17
2018-05-27T08:16:31.234Z,10.00
2018-05-27T08:19:00.074Z,9.73
2018-05-27T08:21:28.890Z,10.27
2018-05-27T08:23:57.728Z,13.13
2018-05-27T08:26:26.432Z,10.17
2018-05-27T08:28:55.000Z,10.00
2018-05-27T08:31:23.687Z,9.90
2018-05-27T08:33:52.378Z,11.37
2018-05-27T08:36:21.103Z,9.60
2018-05-27T08:38:49.794Z,10.77
2018-05-27T08:41:18.479Z,10.77
2018-05-27T08:43:47.205Z,8.87
2018-05-27T08:46:16.628Z,10.90
2018-05-27T08:48:45.902Z,10.43
2018-05-27T08:51:14.599Z,9.20
2018-05-27T08:53:43.982Z,9.73
2018-05-27T08:56:12.941Z,8.87
2018-05-27T08:58:42.467Z,8.83
2018-05-27T09:01:12.098Z,9.93
2018-05-27T09:03:40.873Z,10.93
2018-05-27T09:06:09.448Z,9.87
2018-05-27T09:08:38.245Z,9.83
2018-05-27T09:11:06.798Z,9.03
2018-05-27T09:13:35.419Z,10.50
2018-05-27T09:16:04.152Z,10.20
2018-05-27T09:18:32.640Z,8.00
2018-05-27T09:21:01.316Z,8.63
2018-05-27T09:23:30.204Z,10.73
2018-05-27T09:25:58.897Z,7.33
2018-05-27T09:28:27.640Z,8.47
2018-05-27T09:30:56.753Z,8.97
2018-05-27T09:33:25.626Z,8.37
2018-05-27T09:35:55.629Z,8.30
2018-05-27T09:38:24.336Z,6.67
2018-05-27T09:40:53.073Z,6.40
2018-05-27T09:43:21.502Z,7.67
2018-05-27T09:45:50.370Z,7.57
2018-05-27T09:48:19.179Z,7.03
2018-05-27T09:50:48.040Z,8.37
2018-05-27T09:53:16.530Z,7.57
2018-05-27T09:55:45.209Z,6.57
2018-05-27T09:58:13.959Z,6.47
2018-05-27T10:00:42.770Z,7.97
2018-05-27T10:03:11.481Z,8.43
2018-05-27T10:05:40.028Z,7.37
2018-05-27T10:08:08.873Z,10.30
2018-05-27T10:10:37.706Z,6.67
2018-05-27T10:13:06.506Z,7.47
2018-05-27T10:15:34.995Z,7.83
2018-05-27T10:18:04.594Z,7.80
2018-05-27T10:20:34.207Z,6.30
2018-05-27T10:23:02.923Z,6.60
2018-05-27T10:25:31.681Z,6.83
2018-05-27T10:28:00.762Z,6.50
2018-05-27T10:30:29.546Z,6.27
2018-05-27T10:32:58.380Z,8.33
2018-05-27T10:35:27.797Z,6.73
2018-05-27T10:37:56.432Z,6.97
2018-05-27T10:40:25.119Z,6.97
2018-05-27T10:42:53.900Z,7.40
2018-05-27T10:45:22.590Z,8.63
2018-05-27T10:47:51.221Z,7.43
2018-05-27T10:50:19.915Z,6.93
2018-05-27T10:52:48.654Z,6.27
2018-05-27T10:55:17.331Z,8.03
2018-05-27T10:57:46.018Z,8.07
2018-05-27T11:00:14.740Z,7.07
2018-05-27T11:02:43.527Z,8.07
2018-05-27T11:05:12.405Z,10.07
2018-05-27T11:07:42.432Z,6.60
2018-05-27T11:10:11.252Z,8.93
2018-05-27T11:12:40.117Z,8.73
2018-05-27T11:15:08.825Z,6.60
2018-05-27T11:17:37.516Z,7.90
2018-05-27T11:20:06.380Z,10.63
2018-05-27T11:22:34.992Z,11.83
2018-05-27T11:25:04.295Z,8.77
2018-05-27T11:27:32.777Z,7.00
2018-05-27T11:30:01.315Z,9.23
2018-05-27T11:32:30.316Z,7.53
2018-05-27T11:34:59.179Z,6.70
2018-05-27T11:37:27.726Z,6.83
2018-05-27T11:39:56.416Z,6.93
2018-05-27T11:42:25.278Z,7.57
2018-05-27T11:44:54.112Z,6.60
2018-05-27T11:47:22.548Z,7.93
2018-05-27T11:49:51.381Z,6.87
2018-05-27T11:52:20.075Z,6.90
2018-05-27T11:54:48.711Z,7.57
2018-05-27T11:57:17.287Z,8.10
2018-05-27T11:59:46.423Z,8.60
2018-05-27T12:02:15.049Z,7.13
2018-05-27T12:04:44.237Z,6.90
2018-05-27T12:07:14.047Z,10.27
2018-05-27T12:09:42.914Z,6.53
2018-05-27T12:12:11.460Z,7.37
2018-05-27T12:14:40.663Z,7.50
2018-05-27T12:17:09.380Z,7.60
2018-05-27T12:19:38.610Z,6.57
2018-05-27T12:22:07.247Z,7.97
2018-05-27T12:24:35.931Z,8.20
2018-05-27T12:27:04.508Z,6.17
2018-05-27T12:29:33.283Z,6.00
2018-05-27T12:32:02.182Z,6.17
2018-05-27T12:34:31.851Z,6.23
2018-05-27T12:37:01.407Z,8.43
2018-05-27T12:39:30.184Z,9.53
2018-05-27T12:41:58.981Z,7.53
2018-05-27T12:44:28.635Z,8.80
2018-05-27T12:46:57.472Z,7.07
2018-05-27T12:49:27.282Z,8.37
2018-05-27T12:51:56.032Z,7.47
2018-05-27T12:54:25.536Z,7.90
2018-05-27T12:56:54.313Z,8.73
2018-05-27T12:59:23.789Z,8.77
2018-05-27T13:01:52.619Z,8.97
2018-05-27T13:04:21.395Z,7.60
2018-05-27T13:06:49.952Z,7.73
2018-05-27T13:09:19.518Z,8.10
2018-05-27T13:11:48.269Z,13.80
2018-05-27T13:14:17.577Z,7.67
2018-05-27T13:16:46.346Z,9.07
2018-05-27T13:19:14.847Z,7.20
2018-05-27T13:21:43.587Z,7.53
2018-05-27T13:24:13.053Z,6.67
2018-05-27T13:26:41.843Z,8.73
2018-05-27T13:29:11.112Z,6.57
2018-05-27T13:31:39.983Z,6.13
2018-05-27T13:34:08.521Z,7.97
2018-05-27T13:36:37.706Z,6.73
2018-05-27T13:39:06.872Z,6.57
2018-05-27T13:41:35.703Z,6.97
2018-05-27T13:44:04.339Z,8.53
2018-05-27T13:46:33.565Z,6.03
2018-05-27T13:49:02.179Z,6.87
2018-05-27T13:51:30.747Z,6.17
2018-05-27T13:54:00.043Z,6.93
2018-05-27T13:56:28.892Z,7.13
2018-05-27T13:58:58.696Z,6.03
2018-05-27T14:01:27.542Z,8.23
2018-05-27T14:03:56.540Z,6.00
2018-05-27T14:06:25.328Z,6.33
2018-05-27T14:08:55.494Z,8.23
2018-05-27T14:11:24.247Z,6.50
2018-05-27T14:13:53.078Z,7.20
2018-05-27T14:16:22.105Z,5.93
2018-05-27T14:18:51.731Z,6.93
2018-05-27T14:21:21.002Z,7.87
2018-05-27T14:23:49.782Z,8.37
2018-05-27T14:26:18.468Z,8.47
2018-05-27T14:28:47.246Z,7.17
2018-05-27T14:31:15.949Z,6.17
2018-05-27T14:33:44.471Z,5.90
2018-05-27T14:36:13.358Z,9.23
2018-05-27T14:38:43.123Z,7.97
2018-05-27T14:41:11.891Z,9.50
2018-05-27T14:43:40.711Z,7.00
2018-05-27T14:46:10.217Z,7.03
2018-05-27T14:48:38.797Z,7.67
2018-05-27T14:51:07.530Z,7.10
2018-05-27T14:53:36.237Z,6.40
2018-05-27T14:56:04.948Z,7.87
2018-05-27T14:58:33.818Z,6.93
2018-05-27T15:01:02.510Z,6.07
2018-05-27T15:03:31.160Z,9.27
2018-05-27T15:05:59.855Z,6.70
2018-05-27T15:08:29.355Z,7.17
2018-05-27T15:10:58.182Z,7.40
2018-05-27T15:13:27.010Z,8.50
2018-05-27T15:15:55.699Z,8.23
2018-05-27T15:18:24.696Z,7.60
2018-05-27T15:20:53.510Z,6.93
2018-05-27T15:23:22.194Z,8.67
2018-05-27T15:25:51.170Z,9.40
2018-05-27T15:28:19.714Z,8.73
2018-05-27T15:30:48.437Z,7.73
2018-05-27T15:33:17.270Z,6.27
2018-05-27T15:35:45.835Z,5.97
2018-05-27T15:38:15.580Z,8.47
2018-05-27T15:40:44.358Z,12.03
2018-05-27T15:43:13.132Z,7.73
2018-05-27T15:45:41.896Z,7.70
2018-05-27T15:48:11.108Z,7.27
2018-05-27T15:50:39.696Z,8.10
2018-05-27T15:53:08.516Z,6.13
2018-05-27T15:55:37.207Z,7.30
2018-05-27T15:58:05.983Z,5.67
2018-05-27T16:00:34.815Z,6.83
2018-05-27T16:03:03.522Z,5.43
2018-05-27T16:05:32.087Z,4.87
2018-05-27T16:08:01.430Z,7.87
2018-05-27T16:10:31.133Z,8.27
2018-05-27T16:12:59.629Z,9.07
2018-05-27T16:15:28.358Z,8.60
2018-05-27T16:17:57.277Z,9.77
2018-05-27T16:20:27.559Z,10.70
2018-05-27T16:22:56.537Z,7.93
2018-05-27T16:25:25.303Z,9.87
2018-05-27T16:27:54.130Z,8.40
2018-05-27T16:30:23.513Z,9.80
2018-05-27T16:32:52.111Z,8.90
2018-05-27T16:35:21.587Z,8.57
2018-05-27T16:37:50.441Z,11.07
2018-05-27T16:40:19.990Z,10.20
2018-05-27T16:42:49.449Z,9.53
2018-05-27T16:45:18.116Z,13.00
2018-05-27T16:47:46.870Z,12.20
2018-05-27T16:50:16.375Z,13.93
2018-05-27T16:52:45.090Z,11.33
2018-05-27T16:55:13.762Z,10.40
2018-05-27T16:57:43.234Z,11.07
2018-05-27T17:00:12.107Z,12.63
2018-05-27T17:02:40.735Z,11.63
2018-05-27T17:05:09.417Z,17.60
2018-05-27T17:07:38.127Z,10.77
2018-05-27T17:10:07.492Z,8.37
2018-05-27T17:12:36.211Z,9.17
2018-05-27T17:15:04.953Z,9.10
2018-05-27T17:17:33.623Z,9.20
2018-05-27T17:20:03.337Z,8.47
2018-05-27T17:22:32.172Z,7.67
2018-05-27T17:25:01.199Z,8.00
2018-05-27T17:27:30.093Z,7.73
2018-05-27T17:29:58.870Z,8.17
2018-05-27T17:32:27.654Z,7.57
2018-05-27T17:34:56.527Z,7.57
2018-05-27T17:37:25.220Z,6.97
2018-05-27T17:39:54.010Z,8.33
2018-05-27T17:42:22.823Z,7.67
2018-05-27T17:44:51.655Z,5.10
2018-05-27T17:47:20.342Z,4.63
2018-05-27T17:49:48.995Z,5.67
2018-05-27T17:52:18.545Z,6.77
2018-05-27T17:54:47.280Z,6.23
2018-05-27T17:57:17.055Z,4.73
2018-05-27T17:59:46.025Z,4.73
2018-05-27T18:02:14.541Z,7.93
2018-05-27T18:04:43.434Z,4.60
2018-05-27T18:07:12.094Z,4.37
2018-05-27T18:09:40.957Z,6.70
2018-05-27T18:12:09.596Z,6.80
2018-05-27T18:14:39.212Z,4.40
2018-05-27T18:17:08.052Z,6.63
2018-05-27T18:19:36.884Z,5.00
2018-05-27T18:22:05.568Z,6.90
2018-05-27T18:24:34.213Z,8.40
2018-05-27T18:27:03.051Z,8.37
2018-05-27T18:29:31.728Z,8.17
2018-05-27T18:32:01.141Z,10.53
2018-05-27T18:34:29.867Z,15.40
2018-05-27T18:36:58.517Z,8.40
2018-05-27T18:39:28.123Z,8.37
2018-05-27T18:41:56.860Z,8.93
2018-05-27T18:44:25.592Z,8.83
2018-05-27T18:46:54.279Z,13.43
2018-05-27T18:49:22.766Z,11.63
2018-05-27T18:51:51.456Z,12.03
2018-05-27T18:54:20.137Z,16.67
2018-05-27T18:56:48.824Z,11.93
2018-05-27T18:59:18.131Z,12.30
2018-05-27T19:01:46.874Z,10.00
2018-05-27T19:04:15.507Z,13.73
2018-05-27T19:06:44.209Z,11.30
2018-05-27T19:09:12.974Z,11.37
2018-05-27T19:11:41.668Z,13.53
2018-05-27T19:14:10.261Z,13.47
2018-05-27T19:16:40.001Z,10.83
2018-05-27T19:19:08.849Z,16.97
2018-05-27T19:21:37.537Z,13.23
2018-05-27T19:24:06.230Z,15.13
2018-05-27T19:26:34.874Z,10.63
2018-05-27T19:29:04.239Z,12.07
2018-05-27T19:31:32.811Z,10.23
2018-05-27T19:34:01.639Z,12.30
2018-05-27T19:36:31.658Z,11.13
2018-05-27T19:39:01.268Z,8.73
2018-05-27T19:41:30.157Z,8.53
2018-05-27T19:43:58.796Z,9.17
2018-05-27T19:46:27.487Z,12.17
2018-05-27T19:48:56.331Z,10.30
2018-05-27T19:51:25.875Z,7.10
2018-05-27T19:53:54.522Z,7.10
2018-05-27T19:56:23.004Z,6.83
2018-05-27T19:58:51.848Z,11.13
2018-05-27T20:01:21.547Z,11.20
2018-05-27T20:03:50.231Z,12.23
2018-05-27T20:06:19.654Z,9.60
2018-05-27T20:08:48.299Z,12.70
2018-05-27T20:11:16.982Z,16.00
2018-05-27T20:13:45.488Z,28.37
2018-05-27T20:16:14.337Z,16.23
2018-05-27T20:18:43.032Z,39.57
2018-05-27T20:21:11.680Z,20.17
2018-05-27T20:23:40.422Z,13.33
2018-05-27T20:26:09.233Z,22.77
2018-05-27T20:28:37.883Z,36.43
2018-05-27T20:31:06.398Z,35.03
2018-05-27T20:33:35.189Z,28.63
2018-05-27T20:36:03.983Z,28.93
2018-05-27T20:38:32.842Z,38.07
2018-05-27T20:41:01.847Z,36.60
2018-05-27T20:43:30.703Z,52.57
2018-05-27T20:45:59.541Z,65.20
2018-05-27T20:48:28.369Z,98.03
2018-05-27T20:50:57.200Z,80.77
2018-05-27T20:53:25.829Z,64.40
2018-05-27T20:55:54.666Z,62.77
2018-05-27T20:58:23.498Z,116.50
2018-05-27T21:00:52.329Z,87.20
2018-05-27T21:03:20.965Z,78.70
2018-05-27T21:05:50.191Z,71.67
2018-05-27T21:08:18.890Z,67.70
2018-05-27T21:10:47.518Z,98.00
2018-05-27T21:13:16.466Z,89.93
2018-05-27T21:15:45.232Z,90.60
2018-05-27T21:18:13.958Z,82.77
2018-05-27T21:20:42.803Z,124.53
2018-05-27T21:23:11.485Z,102.33
2018-05-27T21:25:40.257Z,112.23
2018-05-27T21:28:08.946Z,145.27
2018-05-27T21:30:37.724Z,152.03
2018-05-27T21:33:06.556Z,137.90
2018-05-27T21:35:35.389Z,92.80
2018-05-27T21:38:04.540Z,94.33
2018-05-27T21:40:34.006Z,118.40
2018-05-27T21:43:02.876Z,132.23
2018-05-27T21:45:32.367Z,76.97
2018-05-27T21:48:01.180Z,78.20
2018-05-27T21:50:30.149Z,87.37
2018-05-27T21:52:58.901Z,108.40
2018-05-27T21:55:28.410Z,385.60
2018-05-27T21:57:57.098Z,116.00
2018-05-27T22:00:25.872Z,59.27
2018-05-27T22:02:54.572Z,107.63
2018-05-27T22:05:23.305Z,70.27
2018-05-27T22:07:52.098Z,105.43
2018-05-27T22:10:21.451Z,108.27
2018-05-27T22:12:50.137Z,84.17
2018-05-27T22:15:18.836Z,129.60
2018-05-27T22:17:47.696Z,134.90
2018-05-27T22:20:16.931Z,139.87
2018-05-27T22:22:45.756Z,165.80
2018-05-27T22:25:15.175Z,480.27
2018-05-27T22:27:43.720Z,243.07
2018-05-27T22:30:13.608Z,154.97
2018-05-27T22:32:42.458Z,174.70
2018-05-27T22:35:11.164Z,297.93
2018-05-27T22:37:39.923Z,142.67
2018-05-27T22:40:08.955Z,330.00
2018-05-27T22:42:37.657Z,540.30
2018-05-27T22:45:06.279Z,513.87
2018-05-27T22:47:34.834Z,167.20
2018-05-27T22:50:03.570Z,210.63
2018-05-27T22:52:32.287Z,99.73
2018-05-27T22:55:01.163Z,213.63
2018-05-27T22:57:29.970Z,504.33
2018-05-27T22:59:58.822Z,606.83
2018-05-27T23:02:27.663Z,109.90
2018-05-27T23:04:56.496Z,91.73
2018-05-27T23:07:25.891Z,123.43
2018-05-27T23:09:54.544Z,106.20
2018-05-27T23:12:23.899Z,112.23
2018-05-27T23:14:53.386Z,119.70
2018-05-27T23:17:23.006Z,96.57
2018-05-27T23:19:51.824Z,128.83
2018-05-27T23:22:20.335Z,203.80
2018-05-27T23:24:49.039Z,152.13
2018-05-27T23:27:18.402Z,119.10
2018-05-27T23:29:47.165Z,72.93
2018-05-27T23:32:15.701Z,69.87
2018-05-27T23:34:44.407Z,156.63
2018-05-27T23:37:13.273Z,138.47
2018-05-27T23:39:41.965Z,146.73
2018-05-27T23:42:10.738Z,275.03
2018-05-27T23:44:40.944Z,465.27
2018-05-27T23:47:09.638Z,142.93
2018-05-27T23:49:38.413Z,185.67
2018-05-27T23:52:07.107Z,160.60
2018-05-27T23:54:35.792Z,224.57
2018-05-27T23:57:04.438Z,160.73
2018-05-27T23:59:33.936Z,296.40
